sensor_id;sensor_type;location;lat;lon;timestamp;P1;P2;P0
79537;PMS5003;68989;52.032;5.152;2023-11-21T00:01:23;24;22;
79537;PMS5003;68989;52.032;5.152;2023-11-21T00:03:50;21;18;
79537;PMS5003;68989;52.032;5.152;2023-11-21T00:06:17;17;17;
79537;PMS5003;68989;52.032;5.152;2023-11-21T00:08:44;30;22;
79537;PMS5003;68989;52.032;5.152;2023-11-21T00:11:11;22;20;
79537;PMS5003;68989;52.032;5.152;2023-11-21T00:13:38;29;25;
79537;PMS5003;68989;52.032;5.152;2023-11-21T00:16:06;23;20;
79537;PMS5003;68989;52.032;5.152;2023-11-21T00:18:33;22;19;
79537;PMS5003;68989;52.032;5.152;2023-11-21T00:21:00;18;18;
79537;PMS5003;68989;52.032;5.152;2023-11-21T00:23:27;23;20;
79537;PMS5003;68989;52.032;5.152;2023-11-21T00:25:54;18;17;
79537;PMS5003;68989;52.032;5.152;2023-11-21T00:28:21;20;19;
79537;PMS5003;68989;52.032;5.152;2023-11-21T00:30:48;22;20;
79537;PMS5003;68989;52.032;5.152;2023-11-21T00:33:14;17;17;
79537;PMS5003;68989;52.032;5.152;2023-11-21T00:35:42;24;23;
79537;PMS5003;68989;52.032;5.152;2023-11-21T00:38:08;22;19;
79537;PMS5003;68989;52.032;5.152;2023-11-21T00:40:35;23;20;
79537;PMS5003;68989;52.032;5.152;2023-11-21T00:43:02;17;17;
79537;PMS5003;68989;52.032;5.152;2023-11-21T00:45:29;21;19;
79537;PMS5003;68989;52.032;5.152;2023-11-21T00:47:57;18;18;
79537;PMS5003;68989;52.032;5.152;2023-11-21T00:50:24;21;21;
79537;PMS5003;68989;52.032;5.152;2023-11-21T00:52:51;18;18;
79537;PMS5003;68989;52.032;5.152;2023-11-21T00:55:18;19;16;
79537;PMS5003;68989;52.032;5.152;2023-11-21T00:57:45;17;17;
79537;PMS5003;68989;52.032;5.152;2023-11-21T01:00:12;18;17;
79537;PMS5003;68989;52.032;5.152;2023-11-21T01:02:39;17;17;
79537;PMS5003;68989;52.032;5.152;2023-11-21T01:05:07;20;18;
79537;PMS5003;68989;52.032;5.152;2023-11-21T01:07:34;24;20;
79537;PMS5003;68989;52.032;5.152;2023-11-21T01:10:03;20;19;
79537;PMS5003;68989;52.032;5.152;2023-11-21T01:12:44;19;19;
79537;PMS5003;68989;52.032;5.152;2023-11-21T01:15:11;18;17;
79537;PMS5003;68989;52.032;5.152;2023-11-21T01:17:39;21;17;
79537;PMS5003;68989;52.032;5.152;2023-11-21T01:20:06;20;17;
79537;PMS5003;68989;52.032;5.152;2023-11-21T01:22:34;19;18;
79537;PMS5003;68989;52.032;5.152;2023-11-21T01:25:01;19;19;
79537;PMS5003;68989;52.032;5.152;2023-11-21T01:27:29;19;18;
79537;PMS5003;68989;52.032;5.152;2023-11-21T01:29:57;22;17;
79537;PMS5003;68989;52.032;5.152;2023-11-21T01:32:24;19;15;
79537;PMS5003;68989;52.032;5.152;2023-11-21T01:34:51;17;17;
79537;PMS5003;68989;52.032;5.152;2023-11-21T01:37:18;17;15;
79537;PMS5003;68989;52.032;5.152;2023-11-21T01:39:45;24;18;
79537;PMS5003;68989;52.032;5.152;2023-11-21T01:42:12;16;14;
79537;PMS5003;68989;52.032;5.152;2023-11-21T01:44:39;18;15;
79537;PMS5003;68989;52.032;5.152;2023-11-21T01:47:06;17;16;
79537;PMS5003;68989;52.032;5.152;2023-11-21T01:49:34;17;16;
79537;PMS5003;68989;52.032;5.152;2023-11-21T01:52:02;15;15;
79537;PMS5003;68989;52.032;5.152;2023-11-21T01:54:30;17;15;
79537;PMS5003;68989;52.032;5.152;2023-11-21T01:56:58;16;16;
79537;PMS5003;68989;52.032;5.152;2023-11-21T01:59:25;16;16;
79537;PMS5003;68989;52.032;5.152;2023-11-21T02:01:53;16;16;
79537;PMS5003;68989;52.032;5.152;2023-11-21T02:04:20;17;15;
79537;PMS5003;68989;52.032;5.152;2023-11-21T02:06:47;18;15;
79537;PMS5003;68989;52.032;5.152;2023-11-21T02:09:15;15;15;
79537;PMS5003;68989;52.032;5.152;2023-11-21T02:11:47;15;15;
79537;PMS5003;68989;52.032;5.152;2023-11-21T02:14:15;16;15;
79537;PMS5003;68989;52.032;5.152;2023-11-21T02:16:42;17;16;
79537;PMS5003;68989;52.032;5.152;2023-11-21T02:19:09;18;16;
79537;PMS5003;68989;52.032;5.152;2023-11-21T02:21:40;16;15;
79537;PMS5003;68989;52.032;5.152;2023-11-21T02:24:09;15;14;
79537;PMS5003;68989;52.032;5.152;2023-11-21T02:26:36;13;13;
79537;PMS5003;68989;52.032;5.152;2023-11-21T02:29:03;16;16;
79537;PMS5003;68989;52.032;5.152;2023-11-21T02:31:30;16;16;
79537;PMS5003;68989;52.032;5.152;2023-11-21T02:33:57;18;14;
79537;PMS5003;68989;52.032;5.152;2023-11-21T02:36:24;17;15;
79537;PMS5003;68989;52.032;5.152;2023-11-21T02:38:51;13;13;
79537;PMS5003;68989;52.032;5.152;2023-11-21T02:41:18;20;17;
79537;PMS5003;68989;52.032;5.152;2023-11-21T02:43:44;21;17;
79537;PMS5003;68989;52.032;5.152;2023-11-21T02:46:11;21;18;
79537;PMS5003;68989;52.032;5.152;2023-11-21T02:48:39;19;18;
79537;PMS5003;68989;52.032;5.152;2023-11-21T02:51:06;17;16;
79537;PMS5003;68989;52.032;5.152;2023-11-21T02:53:33;13;11;
79537;PMS5003;68989;52.032;5.152;2023-11-21T02:56:00;15;14;
79537;PMS5003;68989;52.032;5.152;2023-11-21T02:58:27;16;16;
79537;PMS5003;68989;52.032;5.152;2023-11-21T03:00:55;20;20;
79537;PMS5003;68989;52.032;5.152;2023-11-21T03:03:21;16;15;
79537;PMS5003;68989;52.032;5.152;2023-11-21T03:05:49;16;14;
79537;PMS5003;68989;52.032;5.152;2023-11-21T03:08:16;17;13;
79537;PMS5003;68989;52.032;5.152;2023-11-21T03:10:43;20;16;
79537;PMS5003;68989;52.032;5.152;2023-11-21T03:13:10;16;16;
79537;PMS5003;68989;52.032;5.152;2023-11-21T03:15:38;16;16;
79537;PMS5003;68989;52.032;5.152;2023-11-21T03:18:05;16;16;
79537;PMS5003;68989;52.032;5.152;2023-11-21T03:20:32;15;15;
79537;PMS5003;68989;52.032;5.152;2023-11-21T03:23:00;18;17;
79537;PMS5003;68989;52.032;5.152;2023-11-21T03:25:27;18;13;
79537;PMS5003;68989;52.032;5.152;2023-11-21T03:27:55;14;11;
79537;PMS5003;68989;52.032;5.152;2023-11-21T03:30:22;17;15;
79537;PMS5003;68989;52.032;5.152;2023-11-21T03:32:49;15;12;
79537;PMS5003;68989;52.032;5.152;2023-11-21T03:35:16;14;12;
79537;PMS5003;68989;52.032;5.152;2023-11-21T03:37:44;19;17;
79537;PMS5003;68989;52.032;5.152;2023-11-21T03:40:11;20;17;
79537;PMS5003;68989;52.032;5.152;2023-11-21T03:42:39;21;18;
79537;PMS5003;68989;52.032;5.152;2023-11-21T03:45:07;19;15;
79537;PMS5003;68989;52.032;5.152;2023-11-21T03:47:35;17;16;
79537;PMS5003;68989;52.032;5.152;2023-11-21T03:50:02;15;14;
79537;PMS5003;68989;52.032;5.152;2023-11-21T03:52:29;18;17;
79537;PMS5003;68989;52.032;5.152;2023-11-21T03:54:56;17;17;
79537;PMS5003;68989;52.032;5.152;2023-11-21T03:57:23;18;18;
79537;PMS5003;68989;52.032;5.152;2023-11-21T03:59:51;20;19;
79537;PMS5003;68989;52.032;5.152;2023-11-21T04:02:18;14;14;
79537;PMS5003;68989;52.032;5.152;2023-11-21T04:04:45;17;14;
79537;PMS5003;68989;52.032;5.152;2023-11-21T04:07:12;17;15;
79537;PMS5003;68989;52.032;5.152;2023-11-21T04:09:39;18;15;
79537;PMS5003;68989;52.032;5.152;2023-11-21T04:12:07;17;16;
79537;PMS5003;68989;52.032;5.152;2023-11-21T04:14:33;16;15;
79537;PMS5003;68989;52.032;5.152;2023-11-21T04:17:01;21;18;
79537;PMS5003;68989;52.032;5.152;2023-11-21T04:19:27;15;15;
79537;PMS5003;68989;52.032;5.152;2023-11-21T04:21:54;16;15;
79537;PMS5003;68989;52.032;5.152;2023-11-21T04:24:21;16;15;
79537;PMS5003;68989;52.032;5.152;2023-11-21T04:26:48;16;16;
79537;PMS5003;68989;52.032;5.152;2023-11-21T04:29:15;22;18;
79537;PMS5003;68989;52.032;5.152;2023-11-21T04:31:42;15;13;
79537;PMS5003;68989;52.032;5.152;2023-11-21T04:34:09;15;15;
79537;PMS5003;68989;52.032;5.152;2023-11-21T04:36:37;16;15;
79537;PMS5003;68989;52.032;5.152;2023-11-21T04:39:05;16;16;
79537;PMS5003;68989;52.032;5.152;2023-11-21T04:41:32;16;13;
79537;PMS5003;68989;52.032;5.152;2023-11-21T04:43:59;13;13;
79537;PMS5003;68989;52.032;5.152;2023-11-21T04:46:27;17;15;
79537;PMS5003;68989;52.032;5.152;2023-11-21T04:48:53;16;15;
79537;PMS5003;68989;52.032;5.152;2023-11-21T04:51:20;17;13;
79537;PMS5003;68989;52.032;5.152;2023-11-21T04:53:48;21;19;
79537;PMS5003;68989;52.032;5.152;2023-11-21T04:56:15;16;16;
79537;PMS5003;68989;52.032;5.152;2023-11-21T04:58:43;16;16;
79537;PMS5003;68989;52.032;5.152;2023-11-21T05:01:10;13;12;
79537;PMS5003;68989;52.032;5.152;2023-11-21T05:03:37;13;12;
79537;PMS5003;68989;52.032;5.152;2023-11-21T05:06:04;16;15;
79537;PMS5003;68989;52.032;5.152;2023-11-21T05:08:31;18;16;
79537;PMS5003;68989;52.032;5.152;2023-11-21T05:10:58;17;15;
79537;PMS5003;68989;52.032;5.152;2023-11-21T05:13:24;17;15;
79537;PMS5003;68989;52.032;5.152;2023-11-21T05:15:51;18;18;
79537;PMS5003;68989;52.032;5.152;2023-11-21T05:18:18;16;13;
79537;PMS5003;68989;52.032;5.152;2023-11-21T05:20:45;15;13;
79537;PMS5003;68989;52.032;5.152;2023-11-21T05:23:13;17;16;
79537;PMS5003;68989;52.032;5.152;2023-11-21T05:25:39;12;12;
79537;PMS5003;68989;52.032;5.152;2023-11-21T05:28:07;16;16;
79537;PMS5003;68989;52.032;5.152;2023-11-21T05:30:33;16;15;
79537;PMS5003;68989;52.032;5.152;2023-11-21T05:33:01;17;13;
79537;PMS5003;68989;52.032;5.152;2023-11-21T05:35:27;16;13;
79537;PMS5003;68989;52.032;5.152;2023-11-21T05:37:55;18;15;
79537;PMS5003;68989;52.032;5.152;2023-11-21T05:40:22;16;15;
79537;PMS5003;68989;52.032;5.152;2023-11-21T05:42:50;13;12;
79537;PMS5003;68989;52.032;5.152;2023-11-21T05:45:18;16;12;
79537;PMS5003;68989;52.032;5.152;2023-11-21T05:47:45;18;16;
79537;PMS5003;68989;52.032;5.152;2023-11-21T05:50:13;16;15;
79537;PMS5003;68989;52.032;5.152;2023-11-21T05:52:41;15;15;
79537;PMS5003;68989;52.032;5.152;2023-11-21T05:55:09;18;16;
79537;PMS5003;68989;52.032;5.152;2023-11-21T05:57:36;17;16;
79537;PMS5003;68989;52.032;5.152;2023-11-21T06:00:05;15;15;
79537;PMS5003;68989;52.032;5.152;2023-11-21T06:02:33;15;12;
79537;PMS5003;68989;52.032;5.152;2023-11-21T06:05:01;16;13;
79537;PMS5003;68989;52.032;5.152;2023-11-21T06:07:28;15;12;
79537;PMS5003;68989;52.032;5.152;2023-11-21T06:09:55;19;15;
79537;PMS5003;68989;52.032;5.152;2023-11-21T06:12:22;16;13;
79537;PMS5003;68989;52.032;5.152;2023-11-21T06:14:49;17;17;
79537;PMS5003;68989;52.032;5.152;2023-11-21T06:17:15;14;13;
79537;PMS5003;68989;52.032;5.152;2023-11-21T06:19:43;12;12;
79537;PMS5003;68989;52.032;5.152;2023-11-21T06:22:11;15;15;
79537;PMS5003;68989;52.032;5.152;2023-11-21T06:24:38;17;16;
79537;PMS5003;68989;52.032;5.152;2023-11-21T06:27:06;13;13;
79537;PMS5003;68989;52.032;5.152;2023-11-21T06:29:33;20;17;
79537;PMS5003;68989;52.032;5.152;2023-11-21T06:32:01;14;13;
79537;PMS5003;68989;52.032;5.152;2023-11-21T06:34:28;16;12;
79537;PMS5003;68989;52.032;5.152;2023-11-21T06:36:54;17;17;
79537;PMS5003;68989;52.032;5.152;2023-11-21T06:39:21;18;16;
79537;PMS5003;68989;52.032;5.152;2023-11-21T06:41:48;14;13;
79537;PMS5003;68989;52.032;5.152;2023-11-21T06:44:16;14;13;
79537;PMS5003;68989;52.032;5.152;2023-11-21T06:46:43;14;14;
79537;PMS5003;68989;52.032;5.152;2023-11-21T06:49:10;16;13;
79537;PMS5003;68989;52.032;5.152;2023-11-21T06:51:37;14;13;
79537;PMS5003;68989;52.032;5.152;2023-11-21T06:54:05;19;16;
79537;PMS5003;68989;52.032;5.152;2023-11-21T06:56:32;18;16;
79537;PMS5003;68989;52.032;5.152;2023-11-21T06:58:59;16;14;
79537;PMS5003;68989;52.032;5.152;2023-11-21T07:01:27;14;14;
79537;PMS5003;68989;52.032;5.152;2023-11-21T07:03:54;17;17;
79537;PMS5003;68989;52.032;5.152;2023-11-21T07:06:21;19;16;
79537;PMS5003;68989;52.032;5.152;2023-11-21T07:08:48;13;13;
79537;PMS5003;68989;52.032;5.152;2023-11-21T07:11:15;20;18;
79537;PMS5003;68989;52.032;5.152;2023-11-21T07:13:42;18;18;
79537;PMS5003;68989;52.032;5.152;2023-11-21T07:16:08;14;14;
79537;PMS5003;68989;52.032;5.152;2023-11-21T07:18:35;17;14;
79537;PMS5003;68989;52.032;5.152;2023-11-21T07:21:03;17;17;
79537;PMS5003;68989;52.032;5.152;2023-11-21T07:23:30;19;13;
79537;PMS5003;68989;52.032;5.152;2023-11-21T07:25:57;23;20;
79537;PMS5003;68989;52.032;5.152;2023-11-21T07:28:25;17;17;
79537;PMS5003;68989;52.032;5.152;2023-11-21T07:30:52;14;13;
79537;PMS5003;68989;52.032;5.152;2023-11-21T07:33:20;19;19;
79537;PMS5003;68989;52.032;5.152;2023-11-21T07:35:46;12;11;
79537;PMS5003;68989;52.032;5.152;2023-11-21T07:38:14;15;14;
79537;PMS5003;68989;52.032;5.152;2023-11-21T07:40:41;22;21;
79537;PMS5003;68989;52.032;5.152;2023-11-21T07:43:09;19;15;
79537;PMS5003;68989;52.032;5.152;2023-11-21T07:45:36;15;14;
79537;PMS5003;68989;52.032;5.152;2023-11-21T07:48:03;19;16;
79537;PMS5003;68989;52.032;5.152;2023-11-21T07:50:31;20;18;
79537;PMS5003;68989;52.032;5.152;2023-11-21T07:52:59;22;20;
79537;PMS5003;68989;52.032;5.152;2023-11-21T07:55:26;15;13;
79537;PMS5003;68989;52.032;5.152;2023-11-21T07:57:53;14;14;
79537;PMS5003;68989;52.032;5.152;2023-11-21T08:00:21;15;15;
79537;PMS5003;68989;52.032;5.152;2023-11-21T08:02:48;15;14;
79537;PMS5003;68989;52.032;5.152;2023-11-21T08:05:16;14;13;
79537;PMS5003;68989;52.032;5.152;2023-11-21T08:07:43;17;17;
79537;PMS5003;68989;52.032;5.152;2023-11-21T08:10:10;12;12;
79537;PMS5003;68989;52.032;5.152;2023-11-21T08:12:37;13;13;
79537;PMS5003;68989;52.032;5.152;2023-11-21T08:15:05;11;11;
79537;PMS5003;68989;52.032;5.152;2023-11-21T08:17:33;17;15;
79537;PMS5003;68989;52.032;5.152;2023-11-21T08:20:00;11;10;
79537;PMS5003;68989;52.032;5.152;2023-11-21T08:22:26;10;10;
79537;PMS5003;68989;52.032;5.152;2023-11-21T08:24:54;12;10;
79537;PMS5003;68989;52.032;5.152;2023-11-21T08:27:21;8;8;
79537;PMS5003;68989;52.032;5.152;2023-11-21T08:29:48;11;11;
79537;PMS5003;68989;52.032;5.152;2023-11-21T08:32:14;12;9;
79537;PMS5003;68989;52.032;5.152;2023-11-21T08:34:41;9;9;
79537;PMS5003;68989;52.032;5.152;2023-11-21T08:37:08;9;9;
79537;PMS5003;68989;52.032;5.152;2023-11-21T08:39:36;9;6;
79537;PMS5003;68989;52.032;5.152;2023-11-21T08:42:03;7;7;
79537;PMS5003;68989;52.032;5.152;2023-11-21T08:44:30;9;8;
79537;PMS5003;68989;52.032;5.152;2023-11-21T08:46:57;8;6;
79537;PMS5003;68989;52.032;5.152;2023-11-21T08:49:24;9;9;
79537;PMS5003;68989;52.032;5.152;2023-11-21T08:51:51;9;6;
79537;PMS5003;68989;52.032;5.152;2023-11-21T08:54:18;8;7;
79537;PMS5003;68989;52.032;5.152;2023-11-21T08:56:45;6;4;
79537;PMS5003;68989;52.032;5.152;2023-11-21T08:59:12;8;8;
79537;PMS5003;68989;52.032;5.152;2023-11-21T09:01:40;9;9;
79537;PMS5003;68989;52.032;5.152;2023-11-21T09:04:07;9;7;
79537;PMS5003;68989;52.032;5.152;2023-11-21T09:06:34;8;7;
79537;PMS5003;68989;52.032;5.152;2023-11-21T09:09:01;7;7;
79537;PMS5003;68989;52.032;5.152;2023-11-21T09:11:29;9;8;
79537;PMS5003;68989;52.032;5.152;2023-11-21T09:13:56;8;7;
79537;PMS5003;68989;52.032;5.152;2023-11-21T09:16:24;8;8;
79537;PMS5003;68989;52.032;5.152;2023-11-21T09:18:50;6;6;
79537;PMS5003;68989;52.032;5.152;2023-11-21T09:21:18;10;9;
79537;PMS5003;68989;52.032;5.152;2023-11-21T09:23:46;9;7;
79537;PMS5003;68989;52.032;5.152;2023-11-21T09:26:12;7;7;
79537;PMS5003;68989;52.032;5.152;2023-11-21T09:28:39;8;8;
79537;PMS5003;68989;52.032;5.152;2023-11-21T09:31:07;9;8;
79537;PMS5003;68989;52.032;5.152;2023-11-21T09:33:34;6;6;
79537;PMS5003;68989;52.032;5.152;2023-11-21T09:36:01;9;9;
79537;PMS5003;68989;52.032;5.152;2023-11-21T09:38:29;9;9;
79537;PMS5003;68989;52.032;5.152;2023-11-21T09:40:55;11;10;
79537;PMS5003;68989;52.032;5.152;2023-11-21T09:43:23;12;11;
79537;PMS5003;68989;52.032;5.152;2023-11-21T09:45:56;10;10;
79537;PMS5003;68989;52.032;5.152;2023-11-21T09:48:28;10;10;
79537;PMS5003;68989;52.032;5.152;2023-11-21T09:50:57;15;10;
79537;PMS5003;68989;52.032;5.152;2023-11-21T09:53:26;11;8;
79537;PMS5003;68989;52.032;5.152;2023-11-21T09:55:58;13;11;
79537;PMS5003;68989;52.032;5.152;2023-11-21T09:58:25;12;11;
79537;PMS5003;68989;52.032;5.152;2023-11-21T10:00:54;12;9;
79537;PMS5003;68989;52.032;5.152;2023-11-21T10:03:24;12;10;
79537;PMS5003;68989;52.032;5.152;2023-11-21T10:05:51;14;13;
79537;PMS5003;68989;52.032;5.152;2023-11-21T10:08:22;12;10;
79537;PMS5003;68989;52.032;5.152;2023-11-21T10:10:51;14;10;
79537;PMS5003;68989;52.032;5.152;2023-11-21T10:13:20;11;11;
79537;PMS5003;68989;52.032;5.152;2023-11-21T10:15:49;12;10;
79537;PMS5003;68989;52.032;5.152;2023-11-21T10:18:17;15;11;
79537;PMS5003;68989;52.032;5.152;2023-11-21T10:20:43;13;11;
79537;PMS5003;68989;52.032;5.152;2023-11-21T10:23:11;11;9;
79537;PMS5003;68989;52.032;5.152;2023-11-21T10:25:39;15;12;
79537;PMS5003;68989;52.032;5.152;2023-11-21T10:28:06;14;13;
79537;PMS5003;68989;52.032;5.152;2023-11-21T10:30:33;11;10;
79537;PMS5003;68989;52.032;5.152;2023-11-21T10:33:01;11;10;
79537;PMS5003;68989;52.032;5.152;2023-11-21T10:35:45;13;11;
79537;PMS5003;68989;52.032;5.152;2023-11-21T10:38:13;11;11;
79537;PMS5003;68989;52.032;5.152;2023-11-21T10:40:41;12;10;
79537;PMS5003;68989;52.032;5.152;2023-11-21T10:43:09;13;10;
79537;PMS5003;68989;52.032;5.152;2023-11-21T10:45:37;11;11;
79537;PMS5003;68989;52.032;5.152;2023-11-21T10:48:05;10;10;
79537;PMS5003;68989;52.032;5.152;2023-11-21T10:50:33;11;10;
79537;PMS5003;68989;52.032;5.152;2023-11-21T10:53:02;14;12;
79537;PMS5003;68989;52.032;5.152;2023-11-21T10:55:30;11;10;
79537;PMS5003;68989;52.032;5.152;2023-11-21T10:57:59;8;8;
79537;PMS5003;68989;52.032;5.152;2023-11-21T11:00:27;9;9;
79537;PMS5003;68989;52.032;5.152;2023-11-21T11:02:55;9;9;
79537;PMS5003;68989;52.032;5.152;2023-11-21T11:05:22;12;11;
79537;PMS5003;68989;52.032;5.152;2023-11-21T11:07:51;11;9;
79537;PMS5003;68989;52.032;5.152;2023-11-21T11:10:22;8;8;
79537;PMS5003;68989;52.032;5.152;2023-11-21T11:12:50;8;7;
79537;PMS5003;68989;52.032;5.152;2023-11-21T11:15:17;10;9;
79537;PMS5003;68989;52.032;5.152;2023-11-21T11:17:45;11;11;
79537;PMS5003;68989;52.032;5.152;2023-11-21T11:20:14;11;11;
79537;PMS5003;68989;52.032;5.152;2023-11-21T11:22:45;15;14;
79537;PMS5003;68989;52.032;5.152;2023-11-21T11:25:27;12;11;
79537;PMS5003;68989;52.032;5.152;2023-11-21T11:28:06;9;9;
79537;PMS5003;68989;52.032;5.152;2023-11-21T11:30:39;14;14;
79537;PMS5003;68989;52.032;5.152;2023-11-21T11:33:17;9;9;
79537;PMS5003;68989;52.032;5.152;2023-11-21T11:35:52;13;11;
79537;PMS5003;68989;52.032;5.152;2023-11-21T11:38:26;14;14;
79537;PMS5003;68989;52.032;5.152;2023-11-21T11:40:57;17;16;
79537;PMS5003;68989;52.032;5.152;2023-11-21T11:43:29;16;14;
79537;PMS5003;68989;52.032;5.152;2023-11-21T11:45:57;17;11;
79537;PMS5003;68989;52.032;5.152;2023-11-21T11:48:24;11;10;
79537;PMS5003;68989;52.032;5.152;2023-11-21T11:51:10;10;10;
79537;PMS5003;68989;52.032;5.152;2023-11-21T11:53:39;12;12;
79537;PMS5003;68989;52.032;5.152;2023-11-21T11:56:23;15;14;
79537;PMS5003;68989;52.032;5.152;2023-11-21T11:58:52;13;11;
79537;PMS5003;68989;52.032;5.152;2023-11-21T12:01:20;15;13;
79537;PMS5003;68989;52.032;5.152;2023-11-21T12:04:55;13;13;
79537;PMS5003;68989;52.032;5.152;2023-11-21T12:07:22;20;14;
79537;PMS5003;68989;52.032;5.152;2023-11-21T12:09:50;18;16;
79537;PMS5003;68989;52.032;5.152;2023-11-21T12:12:16;16;16;
79537;PMS5003;68989;52.032;5.152;2023-11-21T12:14:44;16;16;
79537;PMS5003;68989;52.032;5.152;2023-11-21T12:17:12;16;15;
79537;PMS5003;68989;52.032;5.152;2023-11-21T12:19:38;16;14;
79537;PMS5003;68989;52.032;5.152;2023-11-21T12:22:06;20;18;
79537;PMS5003;68989;52.032;5.152;2023-11-21T12:24:33;18;15;
79537;PMS5003;68989;52.032;5.152;2023-11-21T12:27:00;15;13;
79537;PMS5003;68989;52.032;5.152;2023-11-21T12:29:27;14;14;
79537;PMS5003;68989;52.032;5.152;2023-11-21T12:31:54;19;17;
79537;PMS5003;68989;52.032;5.152;2023-11-21T12:34:21;20;19;
79537;PMS5003;68989;52.032;5.152;2023-11-21T12:36:49;13;11;
79537;PMS5003;68989;52.032;5.152;2023-11-21T12:39:16;19;18;
79537;PMS5003;68989;52.032;5.152;2023-11-21T12:41:44;19;16;
79537;PMS5003;68989;52.032;5.152;2023-11-21T12:44:12;18;18;
79537;PMS5003;68989;52.032;5.152;2023-11-21T12:46:41;22;21;
79537;PMS5003;68989;52.032;5.152;2023-11-21T12:49:10;22;20;
79537;PMS5003;68989;52.032;5.152;2023-11-21T12:51:37;20;18;
79537;PMS5003;68989;52.032;5.152;2023-11-21T12:54:05;22;18;
79537;PMS5003;68989;52.032;5.152;2023-11-21T12:56:33;21;20;
79537;PMS5003;68989;52.032;5.152;2023-11-21T12:59:00;20;15;
79537;PMS5003;68989;52.032;5.152;2023-11-21T13:01:27;21;18;
79537;PMS5003;68989;52.032;5.152;2023-11-21T13:03:54;23;18;
79537;PMS5003;68989;52.032;5.152;2023-11-21T13:06:23;22;19;
79537;PMS5003;68989;52.032;5.152;2023-11-21T13:08:50;26;24;
79537;PMS5003;68989;52.032;5.152;2023-11-21T13:11:17;20;18;
79537;PMS5003;68989;52.032;5.152;2023-11-21T13:13:45;27;21;
79537;PMS5003;68989;52.032;5.152;2023-11-21T13:16:12;18;18;
79537;PMS5003;68989;52.032;5.152;2023-11-21T13:18:39;19;18;
79537;PMS5003;68989;52.032;5.152;2023-11-21T13:21:07;18;18;
79537;PMS5003;68989;52.032;5.152;2023-11-21T13:23:35;17;15;
79537;PMS5003;68989;52.032;5.152;2023-11-21T13:26:02;24;17;
79537;PMS5003;68989;52.032;5.152;2023-11-21T13:28:29;24;19;
79537;PMS5003;68989;52.032;5.152;2023-11-21T13:30:56;13;13;
79537;PMS5003;68989;52.032;5.152;2023-11-21T13:33:23;15;13;
79537;PMS5003;68989;52.032;5.152;2023-11-21T13:35:51;14;13;
79537;PMS5003;68989;52.032;5.152;2023-11-21T13:38:18;16;15;
79537;PMS5003;68989;52.032;5.152;2023-11-21T13:40:47;16;12;
79537;PMS5003;68989;52.032;5.152;2023-11-21T13:43:15;14;13;
79537;PMS5003;68989;52.032;5.152;2023-11-21T13:45:44;14;12;
79537;PMS5003;68989;52.032;5.152;2023-11-21T13:48:12;12;11;
79537;PMS5003;68989;52.032;5.152;2023-11-21T13:50:40;9;9;
79537;PMS5003;68989;52.032;5.152;2023-11-21T13:53:09;10;9;
79537;PMS5003;68989;52.032;5.152;2023-11-21T13:55:36;14;12;
79537;PMS5003;68989;52.032;5.152;2023-11-21T13:58:03;9;9;
79537;PMS5003;68989;52.032;5.152;2023-11-21T14:00:30;15;14;
79537;PMS5003;68989;52.032;5.152;2023-11-21T14:02:57;10;8;
79537;PMS5003;68989;52.032;5.152;2023-11-21T14:05:24;11;10;
79537;PMS5003;68989;52.032;5.152;2023-11-21T14:07:51;8;6;
79537;PMS5003;68989;52.032;5.152;2023-11-21T14:10:18;9;8;
79537;PMS5003;68989;52.032;5.152;2023-11-21T14:12:46;9;9;
79537;PMS5003;68989;52.032;5.152;2023-11-21T14:15:13;12;9;
79537;PMS5003;68989;52.032;5.152;2023-11-21T14:17:39;8;6;
79537;PMS5003;68989;52.032;5.152;2023-11-21T14:20:07;7;7;
79537;PMS5003;68989;52.032;5.152;2023-11-21T14:22:34;9;8;
79537;PMS5003;68989;52.032;5.152;2023-11-21T14:25:01;7;7;
79537;PMS5003;68989;52.032;5.152;2023-11-21T14:27:29;8;5;
79537;PMS5003;68989;52.032;5.152;2023-11-21T14:29:56;8;6;
79537;PMS5003;68989;52.032;5.152;2023-11-21T14:32:22;10;8;
79537;PMS5003;68989;52.032;5.152;2023-11-21T14:34:50;8;8;
79537;PMS5003;68989;52.032;5.152;2023-11-21T14:37:17;10;8;
79537;PMS5003;68989;52.032;5.152;2023-11-21T14:39:44;11;7;
79537;PMS5003;68989;52.032;5.152;2023-11-21T14:42:10;14;13;
79537;PMS5003;68989;52.032;5.152;2023-11-21T14:44:38;13;13;
79537;PMS5003;68989;52.032;5.152;2023-11-21T14:47:05;14;12;
79537;PMS5003;68989;52.032;5.152;2023-11-21T14:49:32;16;14;
79537;PMS5003;68989;52.032;5.152;2023-11-21T14:51:59;16;11;
79537;PMS5003;68989;52.032;5.152;2023-11-21T14:54:27;15;14;
79537;PMS5003;68989;52.032;5.152;2023-11-21T14:56:54;20;19;
79537;PMS5003;68989;52.032;5.152;2023-11-21T14:59:21;22;20;
79537;PMS5003;68989;52.032;5.152;2023-11-21T15:01:48;21;19;
79537;PMS5003;68989;52.032;5.152;2023-11-21T15:04:16;22;19;
79537;PMS5003;68989;52.032;5.152;2023-11-21T15:06:42;21;16;
79537;PMS5003;68989;52.032;5.152;2023-11-21T15:09:10;25;20;
79537;PMS5003;68989;52.032;5.152;2023-11-21T15:11:37;18;17;
79537;PMS5003;68989;52.032;5.152;2023-11-21T15:14:04;24;21;
79537;PMS5003;68989;52.032;5.152;2023-11-21T15:16:31;19;16;
79537;PMS5003;68989;52.032;5.152;2023-11-21T15:18:59;24;20;
79537;PMS5003;68989;52.032;5.152;2023-11-21T15:21:26;24;21;
79537;PMS5003;68989;52.032;5.152;2023-11-21T15:23:53;27;19;
79537;PMS5003;68989;52.032;5.152;2023-11-21T15:26:20;25;19;
79537;PMS5003;68989;52.032;5.152;2023-11-21T15:28:47;21;21;
79537;PMS5003;68989;52.032;5.152;2023-11-21T15:31:15;24;21;
79537;PMS5003;68989;52.032;5.152;2023-11-21T15:33:42;19;18;
79537;PMS5003;68989;52.032;5.152;2023-11-21T15:36:09;19;19;
79537;PMS5003;68989;52.032;5.152;2023-11-21T15:38:37;27;21;
79537;PMS5003;68989;52.032;5.152;2023-11-21T15:41:04;21;19;
79537;PMS5003;68989;52.032;5.152;2023-11-21T15:43:31;26;24;
79537;PMS5003;68989;52.032;5.152;2023-11-21T15:45:58;31;24;
79537;PMS5003;68989;52.032;5.152;2023-11-21T15:48:26;25;24;
79537;PMS5003;68989;52.032;5.152;2023-11-21T15:50:53;24;23;
79537;PMS5003;68989;52.032;5.152;2023-11-21T15:53:20;24;23;
79537;PMS5003;68989;52.032;5.152;2023-11-21T15:55:47;21;21;
79537;PMS5003;68989;52.032;5.152;2023-11-21T15:58:15;20;18;
79537;PMS5003;68989;52.032;5.152;2023-11-21T16:00:43;27;23;
79537;PMS5003;68989;52.032;5.152;2023-11-21T16:03:10;22;22;
79537;PMS5003;68989;52.032;5.152;2023-11-21T16:05:37;22;20;
79537;PMS5003;68989;52.032;5.152;2023-11-21T16:08:04;23;22;
79537;PMS5003;68989;52.032;5.152;2023-11-21T16:10:31;23;21;
79537;PMS5003;68989;52.032;5.152;2023-11-21T16:12:58;28;25;
79537;PMS5003;68989;52.032;5.152;2023-11-21T16:15:25;26;23;
79537;PMS5003;68989;52.032;5.152;2023-11-21T16:17:52;28;27;
79537;PMS5003;68989;52.032;5.152;2023-11-21T16:20:19;23;23;
79537;PMS5003;68989;52.032;5.152;2023-11-21T16:22:46;29;26;
79537;PMS5003;68989;52.032;5.152;2023-11-21T16:25:13;25;23;